sensor_id;sensor_type;location;lat;lon;timestamp;pressure;altitude;pressure_sealevel;temperature;humidity
63654;BME280;49809;47.418;19.080;2022-12-05T00:00:48;101172.41;;;4.70;94.22
63654;BME280;49809;47.418;19.080;2022-12-05T00:04:28;101173.81;;;4.66;94.81
63654;BME280;49809;47.418;19.080;2022-12-05T00:07:53;101166.84;;;4.79;93.65
63654;BME280;49809;47.418;19.080;2022-12-05T00:18:45;101164.22;;;4.79;93.83
63654;BME280;49809;47.418;19.080;2022-12-05T00:22:23;101167.75;;;4.65;94.51
63654;BME280;49809;47.418;19.080;2022-12-05T00:26:03;101169.63;;;4.71;93.97
63654;BME280;49809;47.418;19.080;2022-12-05T00:29:33;101167.62;;;4.73;94.34
63654;BME280;49809;47.418;19.080;2022-12-05T00:33:09;101159.50;;;4.68;94.85
63654;BME280;49809;47.418;19.080;2022-12-05T00:37:22;101159.03;;;4.58;95.42
63654;BME280;49809;47.418;19.080;2022-12-05T00:41:08;101155.09;;;4.69;94.74
63654;BME280;49809;47.418;19.080;2022-12-05T00:44:43;101158.72;;;4.74;93.95
63654;BME280;49809;47.418;19.080;2022-12-05T00:48:29;101153.03;;;4.64;95.02
63654;BME280;49809;47.418;19.080;2022-12-05T00:52:12;101161.50;;;4.66;94.58
63654;BME280;49809;47.418;19.080;2022-12-05T00:55:50;101167.16;;;4.63;94.85
63654;BME280;49809;47.418;19.080;2022-12-05T00:59:26;101161.59;;;4.79;94.26
63654;BME280;49809;47.418;19.080;2022-12-05T01:03:06;101155.09;;;4.75;93.87
63654;BME280;49809;47.418;19.080;2022-12-05T01:06:44;101161.12;;;4.69;94.01
63654;BME280;49809;47.418;19.080;2022-12-05T01:10:28;101157.03;;;4.60;94.91
63654;BME280;49809;47.418;19.080;2022-12-05T01:14:13;101153.06;;;4.71;94.23
63654;BME280;49809;47.418;19.080;2022-12-05T01:18:03;101154.41;;;4.60;95.54
63654;BME280;49809;47.418;19.080;2022-12-05T01:21:39;101147.75;;;4.58;95.27
63654;BME280;49809;47.418;19.080;2022-12-05T01:25:12;101136.03;;;4.60;95.06
63654;BME280;49809;47.418;19.080;2022-12-05T01:28:47;101138.44;;;4.55;95.79
63654;BME280;49809;47.418;19.080;2022-12-05T01:32:18;101133.41;;;4.54;96.34
63654;BME280;49809;47.418;19.080;2022-12-05T01:35:52;101137.59;;;4.48;96.79
63654;BME280;49809;47.418;19.080;2022-12-05T01:39:35;101131.94;;;4.51;97.33
63654;BME280;49809;47.418;19.080;2022-12-05T01:43:21;101133.91;;;4.43;97.48
63654;BME280;49809;47.418;19.080;2022-12-05T01:47:03;101122.75;;;4.34;98.31
63654;BME280;49809;47.418;19.080;2022-12-05T01:50:43;101129.00;;;4.33;98.78
63654;BME280;49809;47.418;19.080;2022-12-05T01:54:21;101128.59;;;4.36;98.97
63654;BME280;49809;47.418;19.080;2022-12-05T01:57:57;101134.31;;;4.40;98.48
63654;BME280;49809;47.418;19.080;2022-12-05T02:01:36;101145.97;;;4.37;99.14
63654;BME280;49809;47.418;19.080;2022-12-05T02:05:24;101142.34;;;4.38;99.37
63654;BME280;49809;47.418;19.080;2022-12-05T02:09:05;101137.03;;;4.31;99.75
63654;BME280;49809;47.418;19.080;2022-12-05T02:12:47;101141.47;;;4.31;100.00
63654;BME280;49809;47.418;19.080;2022-12-05T02:16:46;101141.69;;;4.29;100.00
63654;BME280;49809;47.418;19.080;2022-12-05T02:28:52;101147.50;;;4.25;100.00
63654;BME280;49809;47.418;19.080;2022-12-05T02:37:01;101144.72;;;4.33;100.00
63654;BME280;49809;47.418;19.080;2022-12-05T02:44:34;101143.50;;;4.29;100.00
63654;BME280;49809;47.418;19.080;2022-12-05T02:48:22;101145.87;;;4.24;100.00
63654;BME280;49809;47.418;19.080;2022-12-05T02:52:07;101146.72;;;4.31;100.00
63654;BME280;49809;47.418;19.080;2022-12-05T02:55:50;101149.47;;;4.23;100.00
63654;BME280;49809;47.418;19.080;2022-12-05T02:59:32;101158.22;;;4.30;100.00
63654;BME280;49809;47.418;19.080;2022-12-05T03:03:17;101160.38;;;4.26;100.00
63654;BME280;49809;47.418;19.080;2022-12-05T03:07:07;101161.19;;;4.27;100.00
63654;BME280;49809;47.418;19.080;2022-12-05T03:10:57;101160.84;;;4.30;100.00
63654;BME280;49809;47.418;19.080;2022-12-05T03:14:38;101156.25;;;4.38;100.00
63654;BME280;49809;47.418;19.080;2022-12-05T03:22:14;101162.34;;;4.18;100.00
63654;BME280;49809;47.418;19.080;2022-12-05T03:26:54;101157.97;;;4.25;100.00
63654;BME280;49809;47.418;19.080;2022-12-05T03:30:26;101163.56;;;4.22;100.00
63654;BME280;49809;47.418;19.080;2022-12-05T03:34:01;101159.13;;;4.22;100.00
63654;BME280;49809;47.418;19.080;2022-12-05T03:37:52;101158.91;;;4.17;100.00
63654;BME280;49809;47.418;19.080;2022-12-05T03:42:08;101153.56;;;4.32;100.00
63654;BME280;49809;47.418;19.080;2022-12-05T03:49:53;101168.38;;;4.40;100.00
63654;BME280;49809;47.418;19.080;2022-12-05T03:53:27;101151.16;;;4.30;100.00
63654;BME280;49809;47.418;19.080;2022-12-05T04:01:10;101152.75;;;4.31;100.00
63654;BME280;49809;47.418;19.080;2022-12-05T04:04:48;101149.88;;;4.20;100.00
63654;BME280;49809;47.418;19.080;2022-12-05T04:08:35;101139.06;;;4.29;100.00
63654;BME280;49809;47.418;19.080;2022-12-05T04:12:25;101153.22;;;4.35;100.00
63654;BME280;49809;47.418;19.080;2022-12-05T04:16:17;101160.44;;;4.33;100.00
63654;BME280;49809;47.418;19.080;2022-12-05T04:20:27;101159.81;;;4.31;100.00
63654;BME280;49809;47.418;19.080;2022-12-05T04:24:38;101158.22;;;4.30;100.00
63654;BME280;49809;47.418;19.080;2022-12-05T04:32:17;101154.16;;;4.27;100.00
63654;BME280;49809;47.418;19.080;2022-12-05T04:40:25;101160.59;;;4.25;100.00
63654;BME280;49809;47.418;19.080;2022-12-05T04:44:11;101157.75;;;4.26;100.00
63654;BME280;49809;47.418;19.080;2022-12-05T04:47:58;101135.22;;;4.32;100.00
63654;BME280;49809;47.418;19.080;2022-12-05T04:51:43;101139.91;;;4.36;100.00
63654;BME280;49809;47.418;19.080;2022-12-05T04:55:22;101142.84;;;4.27;100.00
63654;BME280;49809;47.418;19.080;2022-12-05T04:59:01;101139.63;;;4.25;100.00
63654;BME280;49809;47.418;19.080;2022-12-05T05:06:37;101139.00;;;4.23;100.00
63654;BME280;49809;47.418;19.080;2022-12-05T05:10:38;101135.78;;;4.21;100.00
63654;BME280;49809;47.418;19.080;2022-12-05T05:14:19;101143.16;;;4.17;100.00
63654;BME280;49809;47.418;19.080;2022-12-05T05:17:57;101141.63;;;4.23;100.00
63654;BME280;49809;47.418;19.080;2022-12-05T05:21:34;101144.19;;;4.16;100.00
63654;BME280;49809;47.418;19.080;2022-12-05T05:25:10;101145.94;;;4.09;100.00
63654;BME280;49809;47.418;19.080;2022-12-05T05:28:46;101148.66;;;4.22;100.00
63654;BME280;49809;47.418;19.080;2022-12-05T05:32:27;101159.34;;;4.21;100.00
63654;BME280;49809;47.418;19.080;2022-12-05T05:36:07;101165.94;;;4.17;100.00
63654;BME280;49809;47.418;19.080;2022-12-05T05:39:48;101154.56;;;4.31;100.00
63654;BME280;49809;47.418;19.080;2022-12-05T05:43:27;101161.16;;;4.20;100.00
63654;BME280;49809;47.418;19.080;2022-12-05T05:47:06;101155.59;;;4.30;100.00
63654;BME280;49809;47.418;19.080;2022-12-05T05:50:41;101163.00;;;4.26;100.00
63654;BME280;49809;47.418;19.080;2022-12-05T05:54:16;101168.00;;;4.21;100.00
63654;BME280;49809;47.418;19.080;2022-12-05T05:57:59;101169.13;;;4.33;100.00
63654;BME280;49809;47.418;19.080;2022-12-05T06:01:35;101167.22;;;4.21;100.00
63654;BME280;49809;47.418;19.080;2022-12-05T06:05:16;101166.81;;;4.24;100.00
63654;BME280;49809;47.418;19.080;2022-12-05T06:08:57;101164.19;;;4.45;100.00
63654;BME280;49809;47.418;19.080;2022-12-05T06:12:25;101165.06;;;4.31;100.00
63654;BME280;49809;47.418;19.080;2022-12-05T06:15:59;101173.63;;;4.40;100.00
63654;BME280;49809;47.418;19.080;2022-12-05T06:19:33;101174.69;;;4.45;100.00
63654;BME280;49809;47.418;19.080;2022-12-05T06:23:06;101192.66;;;4.27;100.00
63654;BME280;49809;47.418;19.080;2022-12-05T06:26:28;101192.28;;;4.30;100.00
63654;BME280;49809;47.418;19.080;2022-12-05T06:29:55;101190.34;;;4.38;100.00
63654;BME280;49809;47.418;19.080;2022-12-05T06:33:32;101179.34;;;4.50;100.00
63654;BME280;49809;47.418;19.080;2022-12-05T06:37:06;101184.84;;;4.55;100.00
63654;BME280;49809;47.418;19.080;2022-12-05T06:40:43;101186.50;;;4.41;100.00
63654;BME280;49809;47.418;19.080;2022-12-05T06:44:15;101188.81;;;4.51;100.00
63654;BME280;49809;47.418;19.080;2022-12-05T06:48:03;101194.62;;;4.46;100.00
63654;BME280;49809;47.418;19.080;2022-12-05T06:51:48;101197.03;;;4.69;100.00
63654;BME280;49809;47.418;19.080;2022-12-05T06:55:14;101200.66;;;4.68;100.00
63654;BME280;49809;47.418;19.080;2022-12-05T06:58:33;101198.31;;;4.79;100.00
63654;BME280;49809;47.418;19.080;2022-12-05T07:02:16;101188.97;;;4.70;100.00
63654;BME280;49809;47.418;19.080;2022-12-05T07:05:50;101196.59;;;4.65;100.00
63654;BME280;49809;47.418;19.080;2022-12-05T07:09:16;101209.25;;;4.83;100.00
63654;BME280;49809;47.418;19.080;2022-12-05T07:12:58;101210.91;;;4.91;100.00
63654;BME280;49809;47.418;19.080;2022-12-05T07:16:25;101212.53;;;4.92;100.00
63654;BME280;49809;47.418;19.080;2022-12-05T07:20:04;101210.16;;;4.97;100.00
63654;BME280;49809;47.418;19.080;2022-12-05T07:23:55;101214.22;;;5.06;100.00
63654;BME280;49809;47.418;19.080;2022-12-05T07:31:36;101219.09;;;5.09;100.00
63654;BME280;49809;47.418;19.080;2022-12-05T07:39:08;101238.47;;;5.08;100.00
63654;BME280;49809;47.418;19.080;2022-12-05T07:43:01;101240.47;;;5.06;100.00
63654;BME280;49809;47.418;19.080;2022-12-05T07:46:39;101239.16;;;5.23;100.00
63654;BME280;49809;47.418;19.080;2022-12-05T07:54:25;101249.53;;;5.31;100.00
63654;BME280;49809;47.418;19.080;2022-12-05T07:58:05;101244.28;;;5.31;100.00
63654;BME280;49809;47.418;19.080;2022-12-05T08:05:35;101247.50;;;5.33;100.00
63654;BME280;49809;47.418;19.080;2022-12-05T08:16:21;101258.09;;;5.46;99.56
63654;BME280;49809;47.418;19.080;2022-12-05T08:31:46;101259.31;;;5.50;98.77
63654;BME280;49809;47.418;19.080;2022-12-05T08:38:54;101248.62;;;5.58;97.94
63654;BME280;49809;47.418;19.080;2022-12-05T08:42:31;101251.28;;;5.58;98.10
63654;BME280;49809;47.418;19.080;2022-12-05T08:46:04;101255.53;;;5.59;99.16
63654;BME280;49809;47.418;19.080;2022-12-05T08:49:53;101256.41;;;5.80;97.30
63654;BME280;49809;47.418;19.080;2022-12-05T08:53:33;101253.47;;;5.89;97.31
63654;BME280;49809;47.418;19.080;2022-12-05T08:57:15;101257.16;;;6.21;94.78
63654;BME280;49809;47.418;19.080;2022-12-05T09:05:02;101266.09;;;6.27;94.28
63654;BME280;49809;47.418;19.080;2022-12-05T09:09:26;101255.19;;;6.36;93.25
63654;BME280;49809;47.418;19.080;2022-12-05T09:13:37;101262.66;;;6.33;94.52
63654;BME280;49809;47.418;19.080;2022-12-05T09:17:40;101254.59;;;6.54;92.43
63654;BME280;49809;47.418;19.080;2022-12-05T09:21:49;101251.16;;;6.73;93.00
63654;BME280;49809;47.418;19.080;2022-12-05T09:25:36;101245.91;;;6.67;92.22
63654;BME280;49809;47.418;19.080;2022-12-05T09:29:37;101249.56;;;6.92;90.94
63654;BME280;49809;47.418;19.080;2022-12-05T09:33:35;101254.00;;;6.91;90.37
63654;BME280;49809;47.418;19.080;2022-12-05T09:42:35;101245.31;;;6.71;91.56
63654;BME280;49809;47.418;19.080;2022-12-05T09:46:19;101248.72;;;6.78;90.81
63654;BME280;49809;47.418;19.080;2022-12-05T09:54:01;101230.53;;;6.57;92.56
63654;BME280;49809;47.418;19.080;2022-12-05T10:02:31;101221.81;;;6.96;89.55
63654;BME280;49809;47.418;19.080;2022-12-05T10:06:39;101234.16;;;6.89;90.03
63654;BME280;49809;47.418;19.080;2022-12-05T10:11:26;101225.25;;;6.90;90.05
63654;BME280;49809;47.418;19.080;2022-12-05T10:19:37;101205.34;;;7.20;89.38
63654;BME280;49809;47.418;19.080;2022-12-05T10:23:15;101206.34;;;7.19;89.11
63654;BME280;49809;47.418;19.080;2022-12-05T10:27:23;101187.88;;;7.39;87.85
63654;BME280;49809;47.418;19.080;2022-12-05T10:30:58;101177.34;;;7.32;87.80
63654;BME280;49809;47.418;19.080;2022-12-05T10:34:41;101176.59;;;7.19;88.98
63654;BME280;49809;47.418;19.080;2022-12-05T10:38:08;101174.00;;;7.57;87.52
63654;BME280;49809;47.418;19.080;2022-12-05T10:41:24;101178.00;;;7.66;87.24
63654;BME280;49809;47.418;19.080;2022-12-05T10:45:24;101173.63;;;7.47;87.27
63654;BME280;49809;47.418;19.080;2022-12-05T10:49:11;101164.00;;;7.72;86.23
63654;BME280;49809;47.418;19.080;2022-12-05T10:52:36;101163.38;;;7.70;85.86
63654;BME280;49809;47.418;19.080;2022-12-05T10:56:38;101164.81;;;7.72;85.39
63654;BME280;49809;47.418;19.080;2022-12-05T11:00:24;101157.25;;;7.82;86.32
63654;BME280;49809;47.418;19.080;2022-12-05T11:04:29;101157.72;;;7.73;86.31
63654;BME280;49809;47.418;19.080;2022-12-05T11:07:59;101155.94;;;7.98;85.35
63654;BME280;49809;47.418;19.080;2022-12-05T11:11:29;101154.91;;;7.99;85.44
63654;BME280;49809;47.418;19.080;2022-12-05T11:15:20;101148.38;;;7.70;85.43
63654;BME280;49809;47.418;19.080;2022-12-05T11:19:34;101137.56;;;7.47;86.78
63654;BME280;49809;47.418;19.080;2022-12-05T11:23:21;101141.84;;;7.79;85.55
63654;BME280;49809;47.418;19.080;2022-12-05T11:26:45;101145.03;;;7.57;87.14
63654;BME280;49809;47.418;19.080;2022-12-05T11:34:16;101141.00;;;7.85;85.73
63654;BME280;49809;47.418;19.080;2022-12-05T11:38:02;101148.44;;;7.64;86.97
63654;BME280;49809;47.418;19.080;2022-12-05T11:41:43;101140.16;;;7.92;85.10
63654;BME280;49809;47.418;19.080;2022-12-05T11:45:58;101145.06;;;7.88;86.16
63654;BME280;49809;47.418;19.080;2022-12-05T11:49:44;101119.78;;;8.05;85.72
63654;BME280;49809;47.418;19.080;2022-12-05T11:54:17;101124.63;;;8.08;85.04
63654;BME280;49809;47.418;19.080;2022-12-05T12:09:52;101102.09;;;7.81;85.81
63654;BME280;49809;47.418;19.080;2022-12-05T12:30:27;101085.53;;;7.74;87.00
63654;BME280;49809;47.418;19.080;2022-12-05T12:47:00;101073.81;;;7.38;89.02
63654;BME280;49809;47.418;19.080;2022-12-05T12:50:41;101075.69;;;7.25;88.96
63654;BME280;49809;47.418;19.080;2022-12-05T13:02:35;101081.88;;;7.43;89.16
63654;BME280;49809;47.418;19.080;2022-12-05T13:06:17;101074.06;;;7.30;89.78
63654;BME280;49809;47.418;19.080;2022-12-05T13:10:02;101056.56;;;7.36;89.40
63654;BME280;49809;47.418;19.080;2022-12-05T13:13:55;101060.28;;;7.28;90.02
63654;BME280;49809;47.418;19.080;2022-12-05T13:17:27;101064.97;;;7.20;91.28
63654;BME280;49809;47.418;19.080;2022-12-05T13:21:04;101066.03;;;7.12;90.88
63654;BME280;49809;47.418;19.080;2022-12-05T13:24:42;101054.28;;;7.08;91.65
63654;BME280;49809;47.418;19.080;2022-12-05T13:28:32;101045.12;;;7.17;91.12
63654;BME280;49809;47.418;19.080;2022-12-05T13:32:29;101045.81;;;7.06;92.16
63654;BME280;49809;47.418;19.080;2022-12-05T13:36:14;101051.09;;;6.99;92.04
63654;BME280;49809;47.418;19.080;2022-12-05T13:40:01;101051.28;;;7.05;92.08
63654;BME280;49809;47.418;19.080;2022-12-05T13:43:51;101054.19;;;6.90;93.13
63654;BME280;49809;47.418;19.080;2022-12-05T13:47:37;101057.06;;;6.75;93.94
63654;BME280;49809;47.418;19.080;2022-12-05T13:55:19;101055.56;;;6.92;93.50
63654;BME280;49809;47.418;19.080;2022-12-05T13:58:55;101057.59;;;6.97;93.17
63654;BME280;49809;47.418;19.080;2022-12-05T14:10:05;101074.37;;;7.03;93.57
63654;BME280;49809;47.418;19.080;2022-12-05T14:13:41;101068.53;;;7.01;93.91
63654;BME280;49809;47.418;19.080;2022-12-05T14:17:41;101060.25;;;6.90;94.00
63654;BME280;49809;47.418;19.080;2022-12-05T14:32:41;101056.78;;;6.96;94.91
63654;BME280;49809;47.418;19.080;2022-12-05T14:36:32;101060.00;;;7.05;94.61
63654;BME280;49809;47.418;19.080;2022-12-05T14:40:31;101053.94;;;6.98;95.09
63654;BME280;49809;47.418;19.080;2022-12-05T14:44:02;101058.00;;;6.94;95.53
63654;BME280;49809;47.418;19.080;2022-12-05T14:47:29;101057.81;;;6.89;95.90
63654;BME280;49809;47.418;19.080;2022-12-05T14:50:55;101057.63;;;6.90;95.81
63654;BME280;49809;47.418;19.080;2022-12-05T14:54:31;101054.56;;;6.93;95.97
63654;BME280;49809;47.418;19.080;2022-12-05T14:58:01;101050.56;;;6.84;96.44
63654;BME280;49809;47.418;19.080;2022-12-05T15:01:31;101052.41;;;6.77;97.01
63654;BME280;49809;47.418;19.080;2022-12-05T15:05:22;101053.63;;;6.75;97.02
63654;BME280;49809;47.418;19.080;2022-12-05T15:09:02;101053.63;;;6.75;97.36
63654;BME280;49809;47.418;19.080;2022-12-05T15:12:58;101049.00;;;6.64;97.84
63654;BME280;49809;47.418;19.080;2022-12-05T15:16:18;101034.25;;;6.63;98.50
63654;BME280;49809;47.418;19.080;2022-12-05T15:20:18;101037.69;;;6.57;98.93
63654;BME280;49809;47.418;19.080;2022-12-05T15:24:10;101051.84;;;6.55;99.02
63654;BME280;49809;47.418;19.080;2022-12-05T15:27:36;101051.66;;;6.50;99.62
63654;BME280;49809;47.418;19.080;2022-12-05T15:30:58;101045.97;;;6.67;98.76
63654;BME280;49809;47.418;19.080;2022-12-05T15:38:25;101038.47;;;6.70;98.07
63654;BME280;49809;47.418;19.080;2022-12-05T15:41:56;101027.31;;;6.68;98.16
63654;BME280;49809;47.418;19.080;2022-12-05T15:45:25;101024.09;;;6.66;98.20
63654;BME280;49809;47.418;19.080;2022-12-05T15:48:46;101011.94;;;6.72;98.08
63654;BME280;49809;47.418;19.080;2022-12-05T15:59:59;101008.12;;;6.61;99.09
63654;BME280;49809;47.418;19.080;2022-12-05T16:03:51;100996.22;;;6.52;100.00
63654;BME280;49809;47.418;19.080;2022-12-05T16:07:33;101003.13;;;6.53;100.00
63654;BME280;49809;47.418;19.080;2022-12-05T16:10:54;101008.97;;;6.55;100.00
63654;BME280;49809;47.418;19.080;2022-12-05T16:14:29;101022.53;;;6.52;100.00
63654;BME280;49809;47.418;19.080;2022-12-05T16:17:55;101017.47;;;6.50;100.00
63654;BME280;49809;47.418;19.080;2022-12-05T16:21:46;101029.84;;;6.43;100.00
63654;BME280;49809;47.418;19.080;2022-12-05T16:25:16;101021.72;;;6.45;100.00
63654;BME280;49809;47.418;19.080;2022-12-05T16:28:40;101013.44;;;6.48;100.00
63654;BME280;49809;47.418;19.080;2022-12-05T16:32:23;101011.22;;;6.51;100.00
63654;BME280;49809;47.418;19.080;2022-12-05T16:35:54;101020.34;;;6.42;100.00
63654;BME280;49809;47.418;19.080;2022-12-05T16:39:30;101016.47;;;6.45;100.00
63654;BME280;49809;47.418;19.080;2022-12-05T16:42:37;101025.41;;;6.37;100.00
63654;BME280;49809;47.418;19.080;2022-12-05T16:45:57;101029.03;;;6.36;100.00
63654;BME280;49809;47.418;19.080;2022-12-05T16:49:17;101033.87;;;6.39;100.00
63654;BME280;49809;47.418;19.080;2022-12-05T16:52:35;101026.63;;;6.28;100.00
63654;BME280;49809;47.418;19.080;2022-12-05T16:56:19;101023.41;;;6.20;100.00
63654;BME280;49809;47.418;19.080;2022-12-05T16:59:38;101022.81;;;6.18;100.00
63654;BME280;49809;47.418;19.080;2022-12-05T17:03:27;101020.16;;;6.31;100.00
63654;BME280;49809;47.418;19.080;2022-12-05T17:06:37;101019.34;;;6.30;100.00
63654;BME280;49809;47.418;19.080;2022-12-05T17:10:07;101022.78;;;6.37;100.00
63654;BME280;49809;47.418;19.080;2022-12-05T17:13:26;101013.66;;;6.40;100.00
63654;BME280;49809;47.418;19.080;2022-12-05T17:16:54;101011.84;;;6.40;100.00
63654;BME280;49809;47.418;19.080;2022-12-05T17:20:20;101017.31;;;6.39;100.00
63654;BME280;49809;47.418;19.080;2022-12-05T17:23:41;101003.16;;;6.33;100.00
63654;BME280;49809;47.418;19.080;2022-12-05T17:27:42;100994.25;;;6.34;100.00
63654;BME280;49809;47.418;19.080;2022-12-05T17:31:13;100979.09;;;6.36;100.00
63654;BME280;49809;47.418;19.080;2022-12-05T17:34:47;100964.72;;;6.39;100.00
63654;BME280;49809;47.418;19.080;2022-12-05T17:38:18;100971.19;;;6.36;100.00
63654;BME280;49809;47.418;19.080;2022-12-05T17:42:07;100967.59;;;6.24;100.00
63654;BME280;49809;47.418;19.080;2022-12-05T17:45:52;100970.81;;;6.20;100.00
63654;BME280;49809;47.418;19.080;2022-12-05T17:49:21;100972.91;;;5.98;100.00
63654;BME280;49809;47.418;19.080;2022-12-05T17:53:05;100970.06;;;5.93;100.00
63654;BME280;49809;47.418;19.080;2022-12-05T17:56:22;100970.25;;;5.85;100.00
63654;BME280;49809;47.418;19.080;2022-12-05T17:59:56;100980.16;;;5.83;100.00
63654;BME280;49809;47.418;19.080;2022-12-05T18:03:16;100983.81;;;5.88;100.00
63654;BME280;49809;47.418;19.080;2022-12-05T18:06:55;100986.03;;;5.78;100.00
63654;BME280;49809;47.418;19.080;2022-12-05T18:10:29;100985.41;;;5.96;100.00
63654;BME280;49809;47.418;19.080;2022-12-05T18:13:49;100985.84;;;5.93;100.00
63654;BME280;49809;47.418;19.080;2022-12-05T18:17:20;100974.53;;;5.99;100.00
63654;BME280;49809;47.418;19.080;2022-12-05T18:21:03;100980.97;;;6.09;100.00
63654;BME280;49809;47.418;19.080;2022-12-05T18:24:27;100973.88;;;6.10;100.00
63654;BME280;49809;47.418;19.080;2022-12-05T18:27:54;100971.25;;;6.10;100.00
63654;BME280;49809;47.418;19.080;2022-12-05T18:31:28;100970.47;;;6.03;100.00
63654;BME280;49809;47.418;19.080;2022-12-05T18:34:48;100959.91;;;6.16;100.00
63654;BME280;49809;47.418;19.080;2022-12-05T18:38:16;100961.97;;;6.01;100.00
63654;BME280;49809;47.418;19.080;2022-12-05T18:41:49;100959.16;;;5.96;100.00
63654;BME280;49809;47.418;19.080;2022-12-05T18:45:56;100955.13;;;5.93;100.00
63654;BME280;49809;47.418;19.080;2022-12-05T18:49:18;100952.91;;;5.90;100.00
63654;BME280;49809;47.418;19.080;2022-12-05T18:52:34;100947.66;;;5.90;100.00
63654;BME280;49809;47.418;19.080;2022-12-05T18:56:29;100954.72;;;5.90;100.00
63654;BME280;49809;47.418;19.080;2022-12-05T19:00:12;100954.69;;;5.77;100.00
63654;BME280;49809;47.418;19.080;2022-12-05T19:03:44;100950.66;;;5.94;100.00
63654;BME280;49809;47.418;19.080;2022-12-05T19:07:09;100958.53;;;6.00;100.00
63654;BME280;49809;47.418;19.080;2022-12-05T19:10:43;100955.53;;;5.90;100.00
63654;BME280;49809;47.418;19.080;2022-12-05T19:14:18;100948.63;;;5.83;100.00
63654;BME280;49809;47.418;19.080;2022-12-05T19:17:25;100949.84;;;5.80;100.00
63654;BME280;49809;47.418;19.080;2022-12-05T19:20:54;100941.97;;;5.74;100.00
63654;BME280;49809;47.418;19.080;2022-12-05T19:24:24;100946.59;;;5.72;100.00
63654;BME280;49809;47.418;19.080;2022-12-05T19:27:47;100943.78;;;5.73;100.00
63654;BME280;49809;47.418;19.080;2022-12-05T19:31:13;100933.91;;;5.75;100.00
63654;BME280;49809;47.418;19.080;2022-12-05T19:34:37;100934.28;;;5.85;100.00
63654;BME280;49809;47.418;19.080;2022-12-05T19:38:18;100932.28;;;5.81;100.00
63654;BME280;49809;47.418;19.080;2022-12-05T19:41:55;100930.03;;;5.78;100.00
63654;BME280;49809;47.418;19.080;2022-12-05T19:45:27;100929.03;;;5.79;100.00
63654;BME280;49809;47.418;19.080;2022-12-05T19:57:12;100924.78;;;5.91;100.00
63654;BME280;49809;47.418;19.080;2022-12-05T20:00:32;100919.53;;;5.84;100.00
63654;BME280;49809;47.418;19.080;2022-12-05T20:04:09;100922.97;;;5.85;100.00
63654;BME280;49809;47.418;19.080;2022-12-05T20:07:43;100923.19;;;5.90;100.00
63654;BME280;49809;47.418;19.080;2022-12-05T20:11:22;100924.38;;;6.00;100.00
63654;BME280;49809;47.418;19.080;2022-12-05T20:15:03;100911.87;;;5.89;100.00
63654;BME280;49809;47.418;19.080;2022-12-05T20:18:28;100913.88;;;5.94;100.00
63654;BME280;49809;47.418;19.080;2022-12-05T20:22:04;100909.44;;;5.88;100.00
63654;BME280;49809;47.418;19.080;2022-12-05T20:25:54;100919.94;;;5.94;100.00
63654;BME280;49809;47.418;19.080;2022-12-05T20:29:28;100922.34;;;5.96;100.00
63654;BME280;49809;47.418;19.080;2022-12-05T20:33:21;100927.59;;;6.09;100.00
63654;BME280;49809;47.418;19.080;2022-12-05T20:37:05;100921.97;;;5.99;100.00
63654;BME280;49809;47.418;19.080;2022-12-05T20:40:30;100924.16;;;6.02;100.00
63654;BME280;49809;47.418;19.080;2022-12-05T20:43:58;100915.09;;;5.98;100.00
63654;BME280;49809;47.418;19.080;2022-12-05T20:47:42;100915.84;;;6.11;100.00
63654;BME280;49809;47.418;19.080;2022-12-05T20:51:27;100904.31;;;6.12;100.00
63654;BME280;49809;47.418;19.080;2022-12-05T20:54:56;100897.44;;;6.11;100.00
63654;BME280;49809;47.418;19.080;2022-12-05T20:58:46;100895.22;;;6.15;100.00
63654;BME280;49809;47.418;19.080;2022-12-05T21:02:29;100887.13;;;6.10;100.00
63654;BME280;49809;47.418;19.080;2022-12-05T21:10:11;100888.94;;;6.16;100.00
63654;BME280;49809;47.418;19.080;2022-12-05T21:36:05;100872.59;;;6.14;100.00
